Time;durP1;ratioP1;P1;durP2;ratioP2;P2;SDS_P1;SDS_P2;PMS_P1;PMS_P2;Temp;Humidity;BMP_temperature;BMP_pressure;BME280_temperature;BME280_humidity;BME280_pressure;Samples;Min_cycle;Max_cycle;Signal;HPM_P1;HPM_P2
2021/01/21 20:01:11;;;;;;;13.13;2.40;;;;;;;21.16;32.85;98741.97;5111769;27;20510;-34
2021/01/21 20:03:36;;;;;;;13.73;2.17;;;;;;;21.16;33.03;98830.22;5111203;28;20182;-33
2021/01/21 20:06:20;;;;;;;7.70;2.03;;;;;;;21.09;31.87;98739.72;5111380;28;20234;-34
2021/01/21 20:08:45;;;;;;;12.30;2.20;;;;;;;21.11;32.66;98750.41;5111407;28;20242;-36
2021/01/21 20:11:11;;;;;;;7.93;2.10;;;;;;;21.12;32.75;98743.75;5110834;28;20201;-36
2021/01/21 20:13:36;;;;;;;12.10;2.10;;;;;;;21.13;32.78;98739.84;5112129;28;20180;-39
2021/01/21 20:16:07;;;;;;;8.03;1.83;;;;;;;21.13;32.84;98735.16;5110718;28;20197;-37
2021/01/21 20:18:32;;;;;;;8.33;1.90;;;;;;;21.18;32.61;98742.47;5110696;28;20161;-38
2021/01/21 20:20:57;;;;;;;10.93;2.07;;;;;;;21.22;32.61;98748.16;5110803;28;20193;-36
2021/01/21 20:23:22;;;;;;;8.53;2.23;;;;;;;21.22;32.76;98740.69;5109383;28;20182;-39
2021/01/21 20:25:48;;;;;;;8.67;1.57;;;;;;;21.22;32.78;98740.69;5110416;28;20201;-36
2021/01/21 20:28:13;;;;;;;8.57;2.03;;;;;;;21.25;32.82;98728.97;5110462;28;20177;-37
2021/01/21 20:30:38;;;;;;;12.13;1.80;;;;;;;21.30;32.79;98730.78;5110443;28;20181;-37
2021/01/21 20:33:04;;;;;;;17.20;2.80;;;;;;;21.33;32.79;98721.88;5110574;28;20533;-37
2021/01/21 20:35:29;;;;;;;12.73;2.30;;;;;;;21.26;32.67;98733.38;5110512;28;20206;-38
2021/01/21 20:37:54;;;;;;;14.77;2.13;;;;;;;21.17;32.76;98719.59;5110572;28;20634;-38
2021/01/21 20:40:20;;;;;;;16.17;2.93;;;;;;;21.09;32.75;98725.94;5110572;28;20261;-37
2021/01/21 20:42:45;;;;;;;11.93;2.03;;;;;;;21.04;32.95;98720.56;5110076;28;20231;-38
2021/01/21 20:45:11;;;;;;;8.03;1.80;;;;;;;21.01;32.73;98717.66;5110070;28;20212;-37
2021/01/21 20:47:38;;;;;;;9.53;2.13;;;;;;;20.98;32.78;98716.34;5110117;28;20208;-37
2021/01/21 20:50:05;;;;;;;8.27;2.00;;;;;;;21.00;33.24;98722.34;5110406;28;20170;-36
2021/01/21 20:52:30;;;;;;;20.07;2.10;;;;;;;21.13;33.77;98715.84;5108789;28;20174;-39
2021/01/21 20:54:55;;;;;;;13.20;2.47;;;;;;;21.29;32.43;98757.53;5110173;28;20196;-33
2021/01/21 20:57:21;;;;;;;23.87;2.93;;;;;;;21.18;32.29;98720.38;5110098;28;20181;-36
2021/01/21 20:59:46;;;;;;;17.40;2.53;;;;;;;21.17;32.89;98714.06;5109798;28;20205;-34
2021/01/21 21:02:11;;;;;;;24.10;2.17;;;;;;;21.19;32.94;98697.19;5109845;28;20166;-35
2021/01/21 21:04:36;;;;;;;11.93;2.50;;;;;;;21.21;32.98;98700.44;5109684;28;20174;-37
2021/01/21 21:07:02;;;;;;;20.93;2.50;;;;;;;21.23;33.03;98698.16;5109679;28;20174;-35
2021/01/21 21:09:27;;;;;;;21.60;2.50;;;;;;;21.19;32.95;98698.00;5110209;28;20205;-38
2021/01/21 21:11:53;;;;;;;14.63;2.43;;;;;;;21.23;33.01;98697.34;5099996;28;20630;-35
2021/01/21 21:14:19;;;;;;;12.30;1.90;;;;;;;21.26;32.94;98692.00;5096321;28;20194;-35
2021/01/21 21:16:44;;;;;;;24.27;2.30;;;;;;;21.22;32.98;98690.22;5095895;28;20685;-36
2021/01/21 21:19:09;;;;;;;10.40;2.20;;;;;;;21.23;33.22;98687.13;5096196;28;20194;-36
2021/01/21 21:21:35;;;;;;;17.23;2.37;;;;;;;21.28;33.24;98684.19;5095867;28;20189;-36
2021/01/21 21:24:00;;;;;;;15.33;2.87;;;;;;;21.28;33.13;98675.13;5096181;28;20596;-36
2021/01/21 21:26:25;;;;;;;15.00;2.20;;;;;;;21.24;33.12;98680.47;5096016;28;20202;-36
2021/01/21 21:28:51;;;;;;;15.73;2.00;;;;;;;21.25;33.13;98681.28;5095860;28;20182;-36
2021/01/21 23:16:42;;;;;;;;;;;;;;;22.14;28.43;98502.41;5153796;27;20325;-56
2021/01/21 23:19:07;;;;;;;;;;;;;;;19.71;30.55;98493.19;5134553;27;19916;-53
2021/01/21 23:21:32;;;;;;;;;;;;;;;17.71;33.49;98490.06;5134448;27;19961;-53
2021/01/21 23:23:57;;;;;;;;;;;;;;;16.13;36.61;98482.41;5152735;27;19911;-58
2021/01/21 23:26:23;;;;;;;;;;;;;;;14.88;38.65;98489.00;5152767;27;19916;-54
2021/01/21 23:28:48;;;;;;;;;;;;;;;13.91;40.76;98492.09;5152824;27;19911;-58
2021/01/21 23:31:13;;;;;;;;;;;;;;;13.14;43.30;98482.13;5152753;27;19911;-55
2021/01/21 23:33:38;;;;;;;;;;;;;;;12.51;44.13;98468.78;5152807;27;19918;-57
2021/01/21 23:36:04;;;;;;;;;;;;;;;12.02;46.21;98476.22;5152326;27;19916;-57
2021/01/21 23:38:29;;;;;;;;;;;;;;;11.61;46.85;98465.94;5152649;27;19911;-62
2021/01/21 23:40:55;;;;;;;;;;;;;;;11.27;48.04;98463.75;5152460;27;19962;-62
2021/01/21 23:43:20;;;;;;;;;;;;;;;11.02;48.99;98442.97;5152282;27;19912;-62
2021/01/21 23:45:45;;;;;;;;;;;;;;;10.78;49.29;98446.94;5152179;27;19915;-63
2021/01/21 23:48:10;;;;;;;;;;;;;;;10.61;49.95;98436.94;5152214;27;19911;-62
2021/01/21 23:50:35;;;;;;;;;;;;;;;10.45;50.53;98426.81;5152467;27;19915;-62
2021/01/21 23:53:01;;;;;;;;;;;;;;;10.30;50.89;98413.03;5133648;27;20336;-62
2021/01/21 23:55:26;;;;;;;;;;;;;;;10.21;51.43;98418.34;5152078;27;20367;-63
2021/01/21 23:57:51;;;;;;;;;;;;;;;10.12;51.75;98416.47;5152010;27;19911;-59
